sensor_id;sensor_type;location;lat;lon;timestamp;P1;durP1;ratioP1;P2;durP2;ratioP2
80247;SDS011;69560;52.206;21.018;2023-04-24T00:01:21;11.90;;;9.90;;
80247;SDS011;69560;52.206;21.018;2023-04-24T00:03:47;13.60;;;9.90;;
80247;SDS011;69560;52.206;21.018;2023-04-24T00:06:14;13.30;;;10.50;;
80247;SDS011;69560;52.206;21.018;2023-04-24T00:08:43;13.50;;;10.60;;
80247;SDS011;69560;52.206;21.018;2023-04-24T00:11:09;16.30;;;11.30;;
80247;SDS011;69560;52.206;21.018;2023-04-24T00:13:37;16.60;;;10.10;;
80247;SDS011;69560;52.206;21.018;2023-04-24T00:16:04;11.80;;;10.30;;
80247;SDS011;69560;52.206;21.018;2023-04-24T00:18:31;13.50;;;9.70;;
80247;SDS011;69560;52.206;21.018;2023-04-24T00:20:59;12.60;;;9.60;;
80247;SDS011;69560;52.206;21.018;2023-04-24T00:23:26;12.30;;;9.80;;
80247;SDS011;69560;52.206;21.018;2023-04-24T00:25:52;13.60;;;9.90;;
80247;SDS011;69560;52.206;21.018;2023-04-24T00:28:21;14.90;;;10.30;;
80247;SDS011;69560;52.206;21.018;2023-04-24T00:30:48;12.80;;;10.70;;
80247;SDS011;69560;52.206;21.018;2023-04-24T00:33:15;12.80;;;10.20;;
80247;SDS011;69560;52.206;21.018;2023-04-24T00:35:42;12.30;;;11.00;;
80247;SDS011;69560;52.206;21.018;2023-04-24T00:38:11;16.40;;;10.90;;
80247;SDS011;69560;52.206;21.018;2023-04-24T00:40:38;12.10;;;10.40;;
80247;SDS011;69560;52.206;21.018;2023-04-24T00:43:04;14.90;;;10.80;;
80247;SDS011;69560;52.206;21.018;2023-04-24T00:45:31;12.60;;;11.00;;
80247;SDS011;69560;52.206;21.018;2023-04-24T00:47:58;11.90;;;10.20;;
80247;SDS011;69560;52.206;21.018;2023-04-24T00:50:26;14.40;;;10.10;;
80247;SDS011;69560;52.206;21.018;2023-04-24T00:52:54;12.80;;;9.80;;
80247;SDS011;69560;52.206;21.018;2023-04-24T00:55:21;12.60;;;10.00;;
80247;SDS011;69560;52.206;21.018;2023-04-24T00:57:48;14.30;;;9.80;;
80247;SDS011;69560;52.206;21.018;2023-04-24T01:00:18;16.20;;;10.90;;
80247;SDS011;69560;52.206;21.018;2023-04-24T01:02:45;14.70;;;10.90;;
80247;SDS011;69560;52.206;21.018;2023-04-24T01:05:12;13.40;;;10.10;;
80247;SDS011;69560;52.206;21.018;2023-04-24T01:10:11;12.50;;;9.80;;
80247;SDS011;69560;52.206;21.018;2023-04-24T01:12:43;13.30;;;10.70;;
80247;SDS011;69560;52.206;21.018;2023-04-24T01:15:10;13.70;;;10.50;;
80247;SDS011;69560;52.206;21.018;2023-04-24T01:17:37;14.00;;;11.00;;
80247;SDS011;69560;52.206;21.018;2023-04-24T01:20:14;15.30;;;10.10;;
80247;SDS011;69560;52.206;21.018;2023-04-24T01:22:42;12.60;;;10.40;;
80247;SDS011;69560;52.206;21.018;2023-04-24T01:25:11;13.50;;;10.90;;
80247;SDS011;69560;52.206;21.018;2023-04-24T01:27:38;13.80;;;10.60;;
80247;SDS011;69560;52.206;21.018;2023-04-24T01:30:06;16.10;;;10.70;;
80247;SDS011;69560;52.206;21.018;2023-04-24T01:32:33;14.50;;;10.80;;
80247;SDS011;69560;52.206;21.018;2023-04-24T01:35:01;13.20;;;10.40;;
80247;SDS011;69560;52.206;21.018;2023-04-24T01:37:28;13.70;;;11.00;;
80247;SDS011;69560;52.206;21.018;2023-04-24T01:39:55;14.20;;;11.50;;
80247;SDS011;69560;52.206;21.018;2023-04-24T01:42:22;12.40;;;10.90;;
80247;SDS011;69560;52.206;21.018;2023-04-24T01:44:49;13.70;;;10.70;;
80247;SDS011;69560;52.206;21.018;2023-04-24T01:47:17;13.30;;;10.90;;
80247;SDS011;69560;52.206;21.018;2023-04-24T01:49:44;15.60;;;11.60;;
80247;SDS011;69560;52.206;21.018;2023-04-24T01:52:12;13.90;;;10.80;;
80247;SDS011;69560;52.206;21.018;2023-04-24T01:54:39;14.10;;;11.60;;
80247;SDS011;69560;52.206;21.018;2023-04-24T01:57:06;14.70;;;10.50;;
80247;SDS011;69560;52.206;21.018;2023-04-24T01:59:33;13.30;;;10.70;;
80247;SDS011;69560;52.206;21.018;2023-04-24T02:02:02;16.00;;;11.50;;
80247;SDS011;69560;52.206;21.018;2023-04-24T02:04:29;13.20;;;10.90;;
80247;SDS011;69560;52.206;21.018;2023-04-24T02:06:56;16.00;;;10.60;;
80247;SDS011;69560;52.206;21.018;2023-04-24T02:09:26;13.60;;;11.40;;
80247;SDS011;69560;52.206;21.018;2023-04-24T02:11:52;16.40;;;10.80;;
80247;SDS011;69560;52.206;21.018;2023-04-24T02:14:19;16.40;;;11.70;;
80247;SDS011;69560;52.206;21.018;2023-04-24T02:16:46;13.70;;;11.50;;
80247;SDS011;69560;52.206;21.018;2023-04-24T02:19:12;13.40;;;11.20;;
80247;SDS011;69560;52.206;21.018;2023-04-24T02:21:39;14.20;;;11.00;;
80247;SDS011;69560;52.206;21.018;2023-04-24T02:24:06;16.90;;;11.90;;
80247;SDS011;69560;52.206;21.018;2023-04-24T02:26:33;12.10;;;10.70;;
80247;SDS011;69560;52.206;21.018;2023-04-24T02:28:59;13.80;;;10.80;;
80247;SDS011;69560;52.206;21.018;2023-04-24T02:31:26;12.40;;;11.10;;
80247;SDS011;69560;52.206;21.018;2023-04-24T02:34:03;18.50;;;11.60;;
80247;SDS011;69560;52.206;21.018;2023-04-24T02:36:32;15.10;;;11.80;;
80247;SDS011;69560;52.206;21.018;2023-04-24T02:39:02;15.90;;;11.10;;
80247;SDS011;69560;52.206;21.018;2023-04-24T02:41:29;15.30;;;12.00;;
80247;SDS011;69560;52.206;21.018;2023-04-24T02:43:58;18.90;;;12.60;;
80247;SDS011;69560;52.206;21.018;2023-04-24T02:46:25;15.00;;;12.20;;
80247;SDS011;69560;52.206;21.018;2023-04-24T02:48:52;14.40;;;12.00;;
80247;SDS011;69560;52.206;21.018;2023-04-24T02:51:25;15.00;;;11.40;;
80247;SDS011;69560;52.206;21.018;2023-04-24T02:53:53;16.40;;;12.00;;
80247;SDS011;69560;52.206;21.018;2023-04-24T02:56:19;14.20;;;11.60;;
80247;SDS011;69560;52.206;21.018;2023-04-24T02:58:52;13.80;;;11.50;;
80247;SDS011;69560;52.206;21.018;2023-04-24T03:01:19;14.50;;;11.20;;
80247;SDS011;69560;52.206;21.018;2023-04-24T03:03:46;17.10;;;12.10;;
80247;SDS011;69560;52.206;21.018;2023-04-24T03:06:13;14.00;;;11.20;;
80247;SDS011;69560;52.206;21.018;2023-04-24T03:08:40;14.00;;;11.70;;
80247;SDS011;69560;52.206;21.018;2023-04-24T03:11:07;15.10;;;11.40;;
80247;SDS011;69560;52.206;21.018;2023-04-24T03:13:34;14.20;;;11.10;;
80247;SDS011;69560;52.206;21.018;2023-04-24T03:16:01;14.60;;;12.00;;
80247;SDS011;69560;52.206;21.018;2023-04-24T03:18:31;13.00;;;11.30;;
80247;SDS011;69560;52.206;21.018;2023-04-24T03:20:58;15.40;;;12.00;;
80247;SDS011;69560;52.206;21.018;2023-04-24T03:23:25;12.90;;;11.30;;
80247;SDS011;69560;52.206;21.018;2023-04-24T03:25:52;15.50;;;12.30;;
80247;SDS011;69560;52.206;21.018;2023-04-24T03:28:19;13.40;;;11.70;;
80247;SDS011;69560;52.206;21.018;2023-04-24T03:30:55;14.40;;;11.60;;
80247;SDS011;69560;52.206;21.018;2023-04-24T03:33:21;18.10;;;12.70;;
80247;SDS011;69560;52.206;21.018;2023-04-24T03:35:48;18.20;;;12.30;;
80247;SDS011;69560;52.206;21.018;2023-04-24T03:38:15;18.40;;;12.20;;
80247;SDS011;69560;52.206;21.018;2023-04-24T03:40:41;16.90;;;12.20;;
80247;SDS011;69560;52.206;21.018;2023-04-24T03:43:08;20.00;;;12.60;;
80247;SDS011;69560;52.206;21.018;2023-04-24T03:45:35;19.00;;;12.60;;
80247;SDS011;69560;52.206;21.018;2023-04-24T03:48:02;14.50;;;12.40;;
80247;SDS011;69560;52.206;21.018;2023-04-24T03:50:28;16.20;;;12.10;;
80247;SDS011;69560;52.206;21.018;2023-04-24T03:52:55;14.60;;;12.60;;
80247;SDS011;69560;52.206;21.018;2023-04-24T03:55:22;15.00;;;12.10;;
80247;SDS011;69560;52.206;21.018;2023-04-24T03:57:49;17.70;;;12.80;;
80247;SDS011;69560;52.206;21.018;2023-04-24T04:00:15;15.50;;;12.40;;
80247;SDS011;69560;52.206;21.018;2023-04-24T04:02:42;15.30;;;12.30;;
80247;SDS011;69560;52.206;21.018;2023-04-24T04:05:09;14.50;;;12.80;;
80247;SDS011;69560;52.206;21.018;2023-04-24T04:07:35;15.60;;;12.50;;
80247;SDS011;69560;52.206;21.018;2023-04-24T04:10:02;18.30;;;13.30;;
80247;SDS011;69560;52.206;21.018;2023-04-24T04:12:29;17.50;;;13.20;;
80247;SDS011;69560;52.206;21.018;2023-04-24T04:14:56;21.60;;;13.50;;
80247;SDS011;69560;52.206;21.018;2023-04-24T04:17:22;18.60;;;12.90;;
80247;SDS011;69560;52.206;21.018;2023-04-24T04:19:50;17.60;;;12.90;;
80247;SDS011;69560;52.206;21.018;2023-04-24T04:22:16;17.00;;;12.80;;
80247;SDS011;69560;52.206;21.018;2023-04-24T04:24:43;22.60;;;13.70;;
80247;SDS011;69560;52.206;21.018;2023-04-24T04:27:10;18.50;;;12.90;;
80247;SDS011;69560;52.206;21.018;2023-04-24T04:29:37;17.70;;;13.80;;
80247;SDS011;69560;52.206;21.018;2023-04-24T04:32:04;15.30;;;12.20;;
80247;SDS011;69560;52.206;21.018;2023-04-24T04:34:31;16.50;;;12.30;;
80247;SDS011;69560;52.206;21.018;2023-04-24T04:36:59;19.30;;;13.20;;
80247;SDS011;69560;52.206;21.018;2023-04-24T04:39:27;18.80;;;13.00;;
80247;SDS011;69560;52.206;21.018;2023-04-24T04:41:54;14.10;;;12.10;;
80247;SDS011;69560;52.206;21.018;2023-04-24T04:44:21;17.10;;;12.80;;
80247;SDS011;69560;52.206;21.018;2023-04-24T04:46:48;17.70;;;12.60;;
80247;SDS011;69560;52.206;21.018;2023-04-24T04:49:15;15.40;;;12.60;;
80247;SDS011;69560;52.206;21.018;2023-04-24T04:51:42;17.10;;;12.30;;
80247;SDS011;69560;52.206;21.018;2023-04-24T04:54:09;16.20;;;12.30;;
80247;SDS011;69560;52.206;21.018;2023-04-24T04:56:36;19.70;;;12.90;;
80247;SDS011;69560;52.206;21.018;2023-04-24T04:59:02;20.30;;;13.30;;
80247;SDS011;69560;52.206;21.018;2023-04-24T05:01:29;15.70;;;12.50;;
80247;SDS011;69560;52.206;21.018;2023-04-24T05:03:56;21.60;;;13.00;;
80247;SDS011;69560;52.206;21.018;2023-04-24T05:06:23;15.20;;;13.10;;
80247;SDS011;69560;52.206;21.018;2023-04-24T05:08:49;15.00;;;12.80;;
80247;SDS011;69560;52.206;21.018;2023-04-24T05:11:17;14.90;;;11.10;;
80247;SDS011;69560;52.206;21.018;2023-04-24T05:13:44;15.00;;;12.10;;
80247;SDS011;69560;52.206;21.018;2023-04-24T05:16:10;16.20;;;12.10;;
80247;SDS011;69560;52.206;21.018;2023-04-24T05:18:37;47.10;;;34.20;;
80247;SDS011;69560;52.206;21.018;2023-04-24T05:21:04;44.70;;;35.00;;
80247;SDS011;69560;52.206;21.018;2023-04-24T05:23:31;21.60;;;17.10;;
80247;SDS011;69560;52.206;21.018;2023-04-24T05:25:58;16.60;;;13.60;;
80247;SDS011;69560;52.206;21.018;2023-04-24T05:28:24;15.30;;;12.20;;
80247;SDS011;69560;52.206;21.018;2023-04-24T05:30:54;20.80;;;13.60;;
80247;SDS011;69560;52.206;21.018;2023-04-24T05:33:22;19.40;;;13.70;;
80247;SDS011;69560;52.206;21.018;2023-04-24T05:35:48;14.60;;;12.40;;
80247;SDS011;69560;52.206;21.018;2023-04-24T05:38:15;15.40;;;11.90;;
80247;SDS011;69560;52.206;21.018;2023-04-24T05:40:44;13.80;;;12.20;;
80247;SDS011;69560;52.206;21.018;2023-04-24T05:43:10;18.60;;;12.40;;
80247;SDS011;69560;52.206;21.018;2023-04-24T05:45:37;15.80;;;12.30;;
80247;SDS011;69560;52.206;21.018;2023-04-24T05:48:04;14.90;;;11.90;;
80247;SDS011;69560;52.206;21.018;2023-04-24T05:50:31;20.90;;;12.20;;
80247;SDS011;69560;52.206;21.018;2023-04-24T05:52:58;17.90;;;12.80;;
80247;SDS011;69560;52.206;21.018;2023-04-24T05:55:25;14.20;;;12.40;;
80247;SDS011;69560;52.206;21.018;2023-04-24T05:57:52;16.70;;;12.50;;
80247;SDS011;69560;52.206;21.018;2023-04-24T06:00:24;18.80;;;12.10;;
80247;SDS011;69560;52.206;21.018;2023-04-24T06:02:51;17.40;;;11.90;;
80247;SDS011;69560;52.206;21.018;2023-04-24T06:05:18;20.10;;;12.80;;
80247;SDS011;69560;52.206;21.018;2023-04-24T06:07:45;17.60;;;12.00;;
80247;SDS011;69560;52.206;21.018;2023-04-24T06:10:12;16.50;;;12.00;;
80247;SDS011;69560;52.206;21.018;2023-04-24T06:12:38;14.30;;;12.00;;
80247;SDS011;69560;52.206;21.018;2023-04-24T06:15:06;18.90;;;12.10;;
80247;SDS011;69560;52.206;21.018;2023-04-24T06:17:33;16.70;;;12.90;;
80247;SDS011;69560;52.206;21.018;2023-04-24T06:20:00;18.50;;;12.90;;
80247;SDS011;69560;52.206;21.018;2023-04-24T06:22:27;19.60;;;11.70;;
80247;SDS011;69560;52.206;21.018;2023-04-24T06:24:54;23.50;;;12.40;;
80247;SDS011;69560;52.206;21.018;2023-04-24T06:27:20;18.80;;;12.30;;
80247;SDS011;69560;52.206;21.018;2023-04-24T06:29:47;20.50;;;12.90;;
80247;SDS011;69560;52.206;21.018;2023-04-24T06:32:21;17.80;;;12.00;;
80247;SDS011;69560;52.206;21.018;2023-04-24T06:34:49;17.20;;;12.20;;
80247;SDS011;69560;52.206;21.018;2023-04-24T06:37:16;17.10;;;12.80;;
80247;SDS011;69560;52.206;21.018;2023-04-24T06:39:43;15.10;;;11.70;;
80247;SDS011;69560;52.206;21.018;2023-04-24T06:42:10;14.90;;;12.10;;
80247;SDS011;69560;52.206;21.018;2023-04-24T06:44:37;16.90;;;11.80;;
80247;SDS011;69560;52.206;21.018;2023-04-24T06:47:07;15.20;;;11.90;;
80247;SDS011;69560;52.206;21.018;2023-04-24T06:49:38;14.80;;;11.70;;
80247;SDS011;69560;52.206;21.018;2023-04-24T06:52:05;18.40;;;11.70;;
80247;SDS011;69560;52.206;21.018;2023-04-24T06:54:32;17.30;;;11.30;;
80247;SDS011;69560;52.206;21.018;2023-04-24T06:57:00;16.70;;;11.60;;
80247;SDS011;69560;52.206;21.018;2023-04-24T06:59:29;16.60;;;12.00;;
80247;SDS011;69560;52.206;21.018;2023-04-24T07:01:56;19.20;;;11.90;;
80247;SDS011;69560;52.206;21.018;2023-04-24T07:04:23;22.50;;;14.20;;
80247;SDS011;69560;52.206;21.018;2023-04-24T07:06:51;21.80;;;14.40;;
80247;SDS011;69560;52.206;21.018;2023-04-24T07:09:20;15.00;;;11.80;;
80247;SDS011;69560;52.206;21.018;2023-04-24T07:11:48;16.40;;;12.10;;
80247;SDS011;69560;52.206;21.018;2023-04-24T07:14:15;14.80;;;11.40;;
80247;SDS011;69560;52.206;21.018;2023-04-24T07:16:42;17.00;;;12.00;;
80247;SDS011;69560;52.206;21.018;2023-04-24T07:19:09;21.60;;;13.20;;
80247;SDS011;69560;52.206;21.018;2023-04-24T07:21:36;19.20;;;11.90;;
80247;SDS011;69560;52.206;21.018;2023-04-24T07:24:02;15.20;;;11.20;;
80247;SDS011;69560;52.206;21.018;2023-04-24T07:26:29;16.60;;;11.40;;
80247;SDS011;69560;52.206;21.018;2023-04-24T07:28:57;16.20;;;11.90;;
80247;SDS011;69560;52.206;21.018;2023-04-24T07:31:23;15.90;;;11.80;;
80247;SDS011;69560;52.206;21.018;2023-04-24T07:33:50;16.30;;;11.90;;
80247;SDS011;69560;52.206;21.018;2023-04-24T07:36:17;18.30;;;11.90;;
80247;SDS011;69560;52.206;21.018;2023-04-24T07:38:45;21.00;;;12.80;;
80247;SDS011;69560;52.206;21.018;2023-04-24T07:41:12;16.70;;;12.20;;
80247;SDS011;69560;52.206;21.018;2023-04-24T07:43:40;16.90;;;12.60;;
80247;SDS011;69560;52.206;21.018;2023-04-24T07:46:08;18.10;;;12.50;;
80247;SDS011;69560;52.206;21.018;2023-04-24T07:48:35;15.30;;;11.70;;
80247;SDS011;69560;52.206;21.018;2023-04-24T07:51:01;28.40;;;17.40;;
80247;SDS011;69560;52.206;21.018;2023-04-24T07:53:28;16.40;;;12.70;;
80247;SDS011;69560;52.206;21.018;2023-04-24T07:55:55;20.40;;;17.60;;
80247;SDS011;69560;52.206;21.018;2023-04-24T07:58:22;19.60;;;14.70;;
80247;SDS011;69560;52.206;21.018;2023-04-24T08:00:49;15.00;;;12.30;;
80247;SDS011;69560;52.206;21.018;2023-04-24T08:03:16;18.00;;;11.10;;
80247;SDS011;69560;52.206;21.018;2023-04-24T08:05:45;14.00;;;12.00;;
80247;SDS011;69560;52.206;21.018;2023-04-24T08:08:12;15.60;;;10.80;;
80247;SDS011;69560;52.206;21.018;2023-04-24T08:10:39;20.60;;;11.30;;
80247;SDS011;69560;52.206;21.018;2023-04-24T08:13:05;17.90;;;10.70;;
80247;SDS011;69560;52.206;21.018;2023-04-24T08:15:32;18.30;;;12.10;;
80247;SDS011;69560;52.206;21.018;2023-04-24T08:17:59;14.10;;;11.00;;
80247;SDS011;69560;52.206;21.018;2023-04-24T08:20:25;12.50;;;10.70;;
80247;SDS011;69560;52.206;21.018;2023-04-24T08:22:52;16.60;;;11.90;;
80247;SDS011;69560;52.206;21.018;2023-04-24T08:25:19;15.20;;;10.80;;
80247;SDS011;69560;52.206;21.018;2023-04-24T08:27:45;16.20;;;11.00;;
80247;SDS011;69560;52.206;21.018;2023-04-24T08:30:12;12.60;;;10.80;;
80247;SDS011;69560;52.206;21.018;2023-04-24T08:32:39;13.30;;;10.40;;
80247;SDS011;69560;52.206;21.018;2023-04-24T08:35:06;12.70;;;10.30;;
80247;SDS011;69560;52.206;21.018;2023-04-24T08:37:35;13.50;;;9.80;;
80247;SDS011;69560;52.206;21.018;2023-04-24T08:40:06;25.00;;;19.40;;
80247;SDS011;69560;52.206;21.018;2023-04-24T08:42:41;15.30;;;12.00;;
80247;SDS011;69560;52.206;21.018;2023-04-24T08:45:10;15.00;;;10.50;;
80247;SDS011;69560;52.206;21.018;2023-04-24T08:47:40;14.50;;;9.90;;
80247;SDS011;69560;52.206;21.018;2023-04-24T08:50:08;13.40;;;10.00;;
80247;SDS011;69560;52.206;21.018;2023-04-24T08:52:35;17.10;;;10.50;;
80247;SDS011;69560;52.206;21.018;2023-04-24T08:55:03;14.30;;;10.60;;
80247;SDS011;69560;52.206;21.018;2023-04-24T08:57:30;16.70;;;10.30;;
80247;SDS011;69560;52.206;21.018;2023-04-24T08:59:58;15.90;;;10.00;;
80247;SDS011;69560;52.206;21.018;2023-04-24T09:02:26;17.20;;;10.30;;
80247;SDS011;69560;52.206;21.018;2023-04-24T09:04:52;12.40;;;9.20;;
80247;SDS011;69560;52.206;21.018;2023-04-24T09:07:19;14.50;;;10.00;;
80247;SDS011;69560;52.206;21.018;2023-04-24T09:09:51;16.10;;;9.90;;
80247;SDS011;69560;52.206;21.018;2023-04-24T09:12:18;15.40;;;9.50;;
80247;SDS011;69560;52.206;21.018;2023-04-24T09:14:45;11.60;;;9.40;;
80247;SDS011;69560;52.206;21.018;2023-04-24T09:17:12;11.60;;;9.60;;
80247;SDS011;69560;52.206;21.018;2023-04-24T09:19:39;13.90;;;10.60;;
80247;SDS011;69560;52.206;21.018;2023-04-24T09:22:07;15.00;;;9.90;;
80247;SDS011;69560;52.206;21.018;2023-04-24T09:24:35;14.90;;;10.00;;
80247;SDS011;69560;52.206;21.018;2023-04-24T09:27:02;15.70;;;10.40;;
80247;SDS011;69560;52.206;21.018;2023-04-24T09:29:30;14.90;;;10.30;;
80247;SDS011;69560;52.206;21.018;2023-04-24T09:31:58;13.70;;;10.60;;
80247;SDS011;69560;52.206;21.018;2023-04-24T09:34:25;13.50;;;9.80;;
80247;SDS011;69560;52.206;21.018;2023-04-24T09:36:56;15.00;;;9.50;;
80247;SDS011;69560;52.206;21.018;2023-04-24T09:39:22;16.50;;;9.50;;
80247;SDS011;69560;52.206;21.018;2023-04-24T09:44:21;12.80;;;8.60;;
80247;SDS011;69560;52.206;21.018;2023-04-24T09:46:49;9.30;;;8.40;;
80247;SDS011;69560;52.206;21.018;2023-04-24T09:49:27;15.60;;;9.30;;
80247;SDS011;69560;52.206;21.018;2023-04-24T09:52:05;17.00;;;9.00;;
80247;SDS011;69560;52.206;21.018;2023-04-24T09:54:37;12.20;;;8.00;;
80247;SDS011;69560;52.206;21.018;2023-04-24T09:57:04;12.40;;;6.70;;
80247;SDS011;69560;52.206;21.018;2023-04-24T09:59:34;13.50;;;7.40;;
80247;SDS011;69560;52.206;21.018;2023-04-24T10:02:00;8.40;;;7.10;;
80247;SDS011;69560;52.206;21.018;2023-04-24T10:04:28;11.30;;;7.40;;
80247;SDS011;69560;52.206;21.018;2023-04-24T10:06:56;11.00;;;6.80;;
80247;SDS011;69560;52.206;21.018;2023-04-24T10:09:24;7.60;;;6.60;;
80247;SDS011;69560;52.206;21.018;2023-04-24T10:11:52;8.90;;;6.70;;
80247;SDS011;69560;52.206;21.018;2023-04-24T10:14:21;9.40;;;6.10;;
80247;SDS011;69560;52.206;21.018;2023-04-24T10:16:49;10.10;;;7.80;;
80247;SDS011;69560;52.206;21.018;2023-04-24T10:19:18;10.10;;;8.60;;
80247;SDS011;69560;52.206;21.018;2023-04-24T10:21:46;13.20;;;8.40;;
80247;SDS011;69560;52.206;21.018;2023-04-24T10:24:14;10.80;;;8.40;;
80247;SDS011;69560;52.206;21.018;2023-04-24T10:26:42;11.30;;;8.00;;
80247;SDS011;69560;52.206;21.018;2023-04-24T10:29:10;12.40;;;9.50;;
80247;SDS011;69560;52.206;21.018;2023-04-24T10:31:39;9.20;;;8.10;;
80247;SDS011;69560;52.206;21.018;2023-04-24T10:34:06;9.40;;;8.10;;
80247;SDS011;69560;52.206;21.018;2023-04-24T10:36:34;11.00;;;8.70;;
80247;SDS011;69560;52.206;21.018;2023-04-24T10:39:04;13.00;;;8.90;;
80247;SDS011;69560;52.206;21.018;2023-04-24T10:41:36;8.70;;;7.80;;
80247;SDS011;69560;52.206;21.018;2023-04-24T10:44:07;12.50;;;8.30;;
80247;SDS011;69560;52.206;21.018;2023-04-24T10:46:43;8.50;;;7.70;;
80247;SDS011;69560;52.206;21.018;2023-04-24T10:49:11;9.80;;;7.50;;
80247;SDS011;69560;52.206;21.018;2023-04-24T10:51:48;8.10;;;7.30;;
80247;SDS011;69560;52.206;21.018;2023-04-24T10:59:48;9.80;;;7.10;;
80247;SDS011;69560;52.206;21.018;2023-04-24T11:02:17;11.60;;;6.80;;
80247;SDS011;69560;52.206;21.018;2023-04-24T11:04:44;7.50;;;6.60;;
80247;SDS011;69560;52.206;21.018;2023-04-24T11:07:13;8.00;;;7.20;;
80247;SDS011;69560;52.206;21.018;2023-04-24T11:09:41;9.40;;;7.90;;
80247;SDS011;69560;52.206;21.018;2023-04-24T11:12:09;9.50;;;8.10;;
80247;SDS011;69560;52.206;21.018;2023-04-24T11:15:00;8.60;;;7.40;;
80247;SDS011;69560;52.206;21.018;2023-04-24T11:17:29;9.90;;;6.80;;
80247;SDS011;69560;52.206;21.018;2023-04-24T11:20:10;7.90;;;7.10;;
80247;SDS011;69560;52.206;21.018;2023-04-24T11:22:38;8.30;;;7.50;;
80247;SDS011;69560;52.206;21.018;2023-04-24T11:25:08;8.80;;;6.50;;
80247;SDS011;69560;52.206;21.018;2023-04-24T11:27:38;9.60;;;7.10;;
80247;SDS011;69560;52.206;21.018;2023-04-24T11:30:07;10.40;;;6.50;;
80247;SDS011;69560;52.206;21.018;2023-04-24T11:32:37;6.80;;;6.10;;
80247;SDS011;69560;52.206;21.018;2023-04-24T11:37:37;6.70;;;5.80;;
80247;SDS011;69560;52.206;21.018;2023-04-24T11:40:09;6.60;;;5.60;;
80247;SDS011;69560;52.206;21.018;2023-04-24T11:42:37;8.00;;;5.70;;
80247;SDS011;69560;52.206;21.018;2023-04-24T11:45:17;9.10;;;6.00;;
80247;SDS011;69560;52.206;21.018;2023-04-24T11:47:45;8.20;;;6.40;;
80247;SDS011;69560;52.206;21.018;2023-04-24T11:50:13;8.90;;;6.90;;
80247;SDS011;69560;52.206;21.018;2023-04-24T11:52:42;9.00;;;6.70;;
80247;SDS011;69560;52.206;21.018;2023-04-24T11:57:48;7.10;;;6.10;;
80247;SDS011;69560;52.206;21.018;2023-04-24T12:00:16;6.60;;;5.90;;
80247;SDS011;69560;52.206;21.018;2023-04-24T12:02:44;8.60;;;6.70;;
80247;SDS011;69560;52.206;21.018;2023-04-24T12:05:21;8.40;;;6.90;;
80247;SDS011;69560;52.206;21.018;2023-04-24T12:07:48;8.20;;;6.30;;
80247;SDS011;69560;52.206;21.018;2023-04-24T12:10:19;8.60;;;6.90;;
80247;SDS011;69560;52.206;21.018;2023-04-24T12:12:47;9.50;;;6.10;;
80247;SDS011;69560;52.206;21.018;2023-04-24T12:15:17;7.90;;;6.10;;
80247;SDS011;69560;52.206;21.018;2023-04-24T12:17:44;9.40;;;6.10;;
80247;SDS011;69560;52.206;21.018;2023-04-24T12:20:12;7.00;;;6.30;;
80247;SDS011;69560;52.206;21.018;2023-04-24T12:25:16;8.80;;;6.30;;
80247;SDS011;69560;52.206;21.018;2023-04-24T12:27:45;9.60;;;6.60;;
80247;SDS011;69560;52.206;21.018;2023-04-24T12:30:13;8.70;;;6.90;;
80247;SDS011;69560;52.206;21.018;2023-04-24T12:32:45;7.50;;;6.70;;
80247;SDS011;69560;52.206;21.018;2023-04-24T12:35:13;9.20;;;6.10;;
80247;SDS011;69560;52.206;21.018;2023-04-24T12:37:46;8.20;;;6.10;;
80247;SDS011;69560;52.206;21.018;2023-04-24T12:40:13;9.70;;;6.50;;
80247;SDS011;69560;52.206;21.018;2023-04-24T12:42:43;8.10;;;6.40;;
80247;SDS011;69560;52.206;21.018;2023-04-24T12:45:12;9.70;;;6.40;;
80247;SDS011;69560;52.206;21.018;2023-04-24T12:47:39;24.40;;;6.30;;
80247;SDS011;69560;52.206;21.018;2023-04-24T12:50:07;20.80;;;5.00;;
80247;SDS011;69560;52.206;21.018;2023-04-24T12:52:35;14.30;;;4.40;;
80247;SDS011;69560;52.206;21.018;2023-04-24T12:55:02;12.00;;;4.40;;
80247;SDS011;69560;52.206;21.018;2023-04-24T12:57:30;20.50;;;4.80;;
80247;SDS011;69560;52.206;21.018;2023-04-24T12:59:58;15.40;;;4.30;;
80247;SDS011;69560;52.206;21.018;2023-04-24T13:02:25;10.90;;;4.40;;
80247;SDS011;69560;52.206;21.018;2023-04-24T13:04:53;12.20;;;4.00;;
80247;SDS011;69560;52.206;21.018;2023-04-24T13:07:20;16.60;;;4.50;;
80247;SDS011;69560;52.206;21.018;2023-04-24T13:09:48;12.00;;;4.20;;
80247;SDS011;69560;52.206;21.018;2023-04-24T13:12:15;18.40;;;4.90;;
80247;SDS011;69560;52.206;21.018;2023-04-24T13:14:42;6.90;;;4.20;;
80247;SDS011;69560;52.206;21.018;2023-04-24T13:17:09;9.20;;;4.40;;
80247;SDS011;69560;52.206;21.018;2023-04-24T13:19:36;5.50;;;4.20;;
80247;SDS011;69560;52.206;21.018;2023-04-24T13:22:04;8.20;;;5.10;;
80247;SDS011;69560;52.206;21.018;2023-04-24T13:24:31;14.20;;;5.00;;
80247;SDS011;69560;52.206;21.018;2023-04-24T13:26:59;13.80;;;4.50;;
80247;SDS011;69560;52.206;21.018;2023-04-24T13:29:26;11.90;;;4.40;;
80247;SDS011;69560;52.206;21.018;2023-04-24T13:31:54;13.50;;;4.70;;
80247;SDS011;69560;52.206;21.018;2023-04-24T13:34:22;10.00;;;4.60;;
80247;SDS011;69560;52.206;21.018;2023-04-24T13:36:50;5.30;;;4.70;;
80247;SDS011;69560;52.206;21.018;2023-04-24T13:39:21;9.60;;;4.70;;
80247;SDS011;69560;52.206;21.018;2023-04-24T13:41:48;8.50;;;4.60;;
80247;SDS011;69560;52.206;21.018;2023-04-24T13:44:16;5.00;;;4.30;;
80247;SDS011;69560;52.206;21.018;2023-04-24T13:46:44;8.90;;;4.60;;
80247;SDS011;69560;52.206;21.018;2023-04-24T13:49:12;7.50;;;5.10;;
80247;SDS011;69560;52.206;21.018;2023-04-24T13:51:40;8.30;;;5.20;;
80247;SDS011;69560;52.206;21.018;2023-04-24T13:54:08;6.90;;;5.10;;
80247;SDS011;69560;52.206;21.018;2023-04-24T13:56:34;5.10;;;4.50;;
80247;SDS011;69560;52.206;21.018;2023-04-24T13:59:01;7.20;;;4.70;;
80247;SDS011;69560;52.206;21.018;2023-04-24T14:01:28;7.70;;;4.70;;
80247;SDS011;69560;52.206;21.018;2023-04-24T14:03:55;6.30;;;4.40;;
80247;SDS011;69560;52.206;21.018;2023-04-24T14:06:22;6.70;;;4.70;;
80247;SDS011;69560;52.206;21.018;2023-04-24T14:08:49;5.60;;;4.90;;
80247;SDS011;69560;52.206;21.018;2023-04-24T14:11:17;4.70;;;4.20;;
80247;SDS011;69560;52.206;21.018;2023-04-24T14:13:44;7.00;;;4.70;;
80247;SDS011;69560;52.206;21.018;2023-04-24T14:16:11;5.20;;;4.70;;
80247;SDS011;69560;52.206;21.018;2023-04-24T14:18:38;6.00;;;4.60;;
80247;SDS011;69560;52.206;21.018;2023-04-24T14:21:05;5.30;;;4.10;;
80247;SDS011;69560;52.206;21.018;2023-04-24T14:23:31;5.80;;;4.30;;
80247;SDS011;69560;52.206;21.018;2023-04-24T14:25:58;5.30;;;4.50;;
80247;SDS011;69560;52.206;21.018;2023-04-24T14:28:25;5.80;;;5.20;;
80247;SDS011;69560;52.206;21.018;2023-04-24T14:30:55;6.40;;;4.70;;
80247;SDS011;69560;52.206;21.018;2023-04-24T14:33:21;6.20;;;5.00;;
80247;SDS011;69560;52.206;21.018;2023-04-24T14:35:48;6.50;;;4.30;;
80247;SDS011;69560;52.206;21.018;2023-04-24T14:38:15;5.30;;;4.30;;